sensor_id;sensor_type;location;lat;lon;timestamp;temperature;humidity
47070;DHT22;32822;48.140;7.702;2024-03-02T00:00:19;6.50;86.80
47070;DHT22;32822;48.140;7.702;2024-03-02T00:02:47;6.50;87.10
47070;DHT22;32822;48.140;7.702;2024-03-02T00:05:16;6.40;87.30
47070;DHT22;32822;48.140;7.702;2024-03-02T00:07:43;6.50;87.10
47070;DHT22;32822;48.140;7.702;2024-03-02T00:10:16;6.50;87.10
47070;DHT22;32822;48.140;7.702;2024-03-02T00:12:47;6.50;87.30
47070;DHT22;32822;48.140;7.702;2024-03-02T00:15:31;6.40;86.90
47070;DHT22;32822;48.140;7.702;2024-03-02T00:18:02;6.40;87.10
47070;DHT22;32822;48.140;7.702;2024-03-02T00:20:30;6.40;87.40
47070;DHT22;32822;48.140;7.702;2024-03-02T00:23:03;6.40;87.40
47070;DHT22;32822;48.140;7.702;2024-03-02T00:25:38;6.40;87.60
47070;DHT22;32822;48.140;7.702;2024-03-02T00:28:05;6.50;87.30
47070;DHT22;32822;48.140;7.702;2024-03-02T00:30:49;6.40;87.40
47070;DHT22;32822;48.140;7.702;2024-03-02T00:33:17;6.40;87.50
47070;DHT22;32822;48.140;7.702;2024-03-02T00:35:45;6.30;87.20
47070;DHT22;32822;48.140;7.702;2024-03-02T00:38:12;6.20;87.40
47070;DHT22;32822;48.140;7.702;2024-03-02T00:40:42;6.20;87.10
47070;DHT22;32822;48.140;7.702;2024-03-02T00:46:00;6.10;86.50
47070;DHT22;32822;48.140;7.702;2024-03-02T00:48:27;6.10;86.80
47070;DHT22;32822;48.140;7.702;2024-03-02T00:50:54;6.10;86.40
47070;DHT22;32822;48.140;7.702;2024-03-02T00:53:23;6.10;86.50
47070;DHT22;32822;48.140;7.702;2024-03-02T00:55:52;6.00;85.40
47070;DHT22;32822;48.140;7.702;2024-03-02T00:58:19;5.90;85.10
47070;DHT22;32822;48.140;7.702;2024-03-02T01:00:45;5.80;85.40
47070;DHT22;32822;48.140;7.702;2024-03-02T01:03:12;5.70;85.60
47070;DHT22;32822;48.140;7.702;2024-03-02T01:05:41;5.60;85.80
47070;DHT22;32822;48.140;7.702;2024-03-02T01:08:09;5.60;85.60
47070;DHT22;32822;48.140;7.702;2024-03-02T01:10:35;5.50;86.00
47070;DHT22;32822;48.140;7.702;2024-03-02T01:13:03;5.40;86.70
47070;DHT22;32822;48.140;7.702;2024-03-02T01:15:30;5.50;87.10
47070;DHT22;32822;48.140;7.702;2024-03-02T01:17:58;5.50;87.80
47070;DHT22;32822;48.140;7.702;2024-03-02T01:20:24;5.60;88.90
47070;DHT22;32822;48.140;7.702;2024-03-02T01:22:51;5.60;89.10
47070;DHT22;32822;48.140;7.702;2024-03-02T01:25:18;5.60;88.60
47070;DHT22;32822;48.140;7.702;2024-03-02T01:27:45;5.60;88.00
47070;DHT22;32822;48.140;7.702;2024-03-02T01:30:14;5.60;87.90
47070;DHT22;32822;48.140;7.702;2024-03-02T01:32:40;5.60;88.00
47070;DHT22;32822;48.140;7.702;2024-03-02T01:35:07;5.50;87.90
47070;DHT22;32822;48.140;7.702;2024-03-02T01:37:34;5.50;87.80
47070;DHT22;32822;48.140;7.702;2024-03-02T01:40:01;5.50;87.80
47070;DHT22;32822;48.140;7.702;2024-03-02T01:42:33;5.40;87.80
47070;DHT22;32822;48.140;7.702;2024-03-02T01:45:00;5.40;87.80
47070;DHT22;32822;48.140;7.702;2024-03-02T01:47:28;5.30;87.80
47070;DHT22;32822;48.140;7.702;2024-03-02T01:49:55;5.30;87.70
47070;DHT22;32822;48.140;7.702;2024-03-02T01:52:22;5.20;87.60
47070;DHT22;32822;48.140;7.702;2024-03-02T01:54:49;5.10;87.50
47070;DHT22;32822;48.140;7.702;2024-03-02T01:57:15;5.10;87.60
47070;DHT22;32822;48.140;7.702;2024-03-02T01:59:42;5.00;87.60
47070;DHT22;32822;48.140;7.702;2024-03-02T02:02:09;5.00;87.40
47070;DHT22;32822;48.140;7.702;2024-03-02T02:04:38;4.90;87.50
47070;DHT22;32822;48.140;7.702;2024-03-02T02:07:05;4.90;87.30
47070;DHT22;32822;48.140;7.702;2024-03-02T02:09:32;4.80;87.00
47070;DHT22;32822;48.140;7.702;2024-03-02T02:11:58;4.80;87.20
47070;DHT22;32822;48.140;7.702;2024-03-02T02:14:25;4.80;87.50
47070;DHT22;32822;48.140;7.702;2024-03-02T02:16:52;4.80;87.60
47070;DHT22;32822;48.140;7.702;2024-03-02T02:19:19;4.70;87.70
47070;DHT22;32822;48.140;7.702;2024-03-02T02:21:47;4.80;87.60
47070;DHT22;32822;48.140;7.702;2024-03-02T02:24:14;4.80;88.00
47070;DHT22;32822;48.140;7.702;2024-03-02T02:26:40;4.70;87.50
47070;DHT22;32822;48.140;7.702;2024-03-02T02:29:07;4.80;87.60
47070;DHT22;32822;48.140;7.702;2024-03-02T02:31:37;4.70;87.30
47070;DHT22;32822;48.140;7.702;2024-03-02T02:34:04;4.70;87.50
47070;DHT22;32822;48.140;7.702;2024-03-02T02:36:31;4.60;87.80
47070;DHT22;32822;48.140;7.702;2024-03-02T02:39:00;4.60;87.90
47070;DHT22;32822;48.140;7.702;2024-03-02T02:41:28;4.60;87.90
47070;DHT22;32822;48.140;7.702;2024-03-02T02:43:55;4.70;88.00
47070;DHT22;32822;48.140;7.702;2024-03-02T02:46:22;4.70;88.00
47070;DHT22;32822;48.140;7.702;2024-03-02T02:48:48;4.80;88.30
47070;DHT22;32822;48.140;7.702;2024-03-02T02:51:16;4.80;88.20
47070;DHT22;32822;48.140;7.702;2024-03-02T02:53:43;4.90;88.80
47070;DHT22;32822;48.140;7.702;2024-03-02T02:56:11;4.90;88.80
47070;DHT22;32822;48.140;7.702;2024-03-02T02:58:40;4.90;88.70
47070;DHT22;32822;48.140;7.702;2024-03-02T03:01:07;4.90;88.80
47070;DHT22;32822;48.140;7.702;2024-03-02T03:03:34;5.00;88.70
47070;DHT22;32822;48.140;7.702;2024-03-02T03:06:01;5.00;88.60
47070;DHT22;32822;48.140;7.702;2024-03-02T03:08:28;5.00;89.10
47070;DHT22;32822;48.140;7.702;2024-03-02T03:10:55;5.00;89.10
47070;DHT22;32822;48.140;7.702;2024-03-02T03:13:23;5.00;89.40
47070;DHT22;32822;48.140;7.702;2024-03-02T03:15:50;5.00;89.30
47070;DHT22;32822;48.140;7.702;2024-03-02T03:18:16;5.00;90.00
47070;DHT22;32822;48.140;7.702;2024-03-02T03:20:43;5.00;90.10
47070;DHT22;32822;48.140;7.702;2024-03-02T03:23:10;5.00;89.90
47070;DHT22;32822;48.140;7.702;2024-03-02T03:25:40;4.90;89.60
47070;DHT22;32822;48.140;7.702;2024-03-02T03:28:07;4.90;89.30
47070;DHT22;32822;48.140;7.702;2024-03-02T03:30:36;4.90;89.20
47070;DHT22;32822;48.140;7.702;2024-03-02T03:33:03;4.90;88.80
47070;DHT22;32822;48.140;7.702;2024-03-02T03:35:31;4.90;89.20
47070;DHT22;32822;48.140;7.702;2024-03-02T03:37:58;4.90;89.20
47070;DHT22;32822;48.140;7.702;2024-03-02T03:40:24;4.90;89.20
47070;DHT22;32822;48.140;7.702;2024-03-02T03:42:51;4.90;89.10
47070;DHT22;32822;48.140;7.702;2024-03-02T03:45:18;4.80;89.20
47070;DHT22;32822;48.140;7.702;2024-03-02T03:47:47;4.80;89.30
47070;DHT22;32822;48.140;7.702;2024-03-02T03:50:14;4.80;90.10
47070;DHT22;32822;48.140;7.702;2024-03-02T03:52:53;4.80;90.10
47070;DHT22;32822;48.140;7.702;2024-03-02T03:55:20;4.80;90.00
47070;DHT22;32822;48.140;7.702;2024-03-02T03:57:46;4.80;90.00
47070;DHT22;32822;48.140;7.702;2024-03-02T04:00:14;4.90;90.00
47070;DHT22;32822;48.140;7.702;2024-03-02T04:02:41;4.80;90.30
47070;DHT22;32822;48.140;7.702;2024-03-02T04:05:08;4.90;90.80
47070;DHT22;32822;48.140;7.702;2024-03-02T04:07:36;4.80;90.80
47070;DHT22;32822;48.140;7.702;2024-03-02T04:10:08;4.80;90.80
47070;DHT22;32822;48.140;7.702;2024-03-02T04:12:34;4.80;90.80
47070;DHT22;32822;48.140;7.702;2024-03-02T04:15:00;4.80;90.80
47070;DHT22;32822;48.140;7.702;2024-03-02T04:17:29;4.80;90.60
47070;DHT22;32822;48.140;7.702;2024-03-02T04:19:57;4.80;90.50
47070;DHT22;32822;48.140;7.702;2024-03-02T04:22:24;4.80;90.90
47070;DHT22;32822;48.140;7.702;2024-03-02T04:24:50;4.70;90.80
47070;DHT22;32822;48.140;7.702;2024-03-02T04:27:18;4.70;90.70
47070;DHT22;32822;48.140;7.702;2024-03-02T04:29:45;4.70;90.90
47070;DHT22;32822;48.140;7.702;2024-03-02T04:32:11;4.70;91.20
47070;DHT22;32822;48.140;7.702;2024-03-02T04:34:38;4.60;91.10
47070;DHT22;32822;48.140;7.702;2024-03-02T04:37:05;4.60;91.30
47070;DHT22;32822;48.140;7.702;2024-03-02T04:39:31;4.60;90.90
47070;DHT22;32822;48.140;7.702;2024-03-02T04:41:58;4.60;90.90
47070;DHT22;32822;48.140;7.702;2024-03-02T04:44:26;4.60;90.90
47070;DHT22;32822;48.140;7.702;2024-03-02T04:46:53;4.60;91.00
47070;DHT22;32822;48.140;7.702;2024-03-02T04:49:19;4.50;91.20
47070;DHT22;32822;48.140;7.702;2024-03-02T04:51:46;4.40;91.10
47070;DHT22;32822;48.140;7.702;2024-03-02T04:54:13;4.40;91.10
47070;DHT22;32822;48.140;7.702;2024-03-02T04:56:39;4.40;91.30
47070;DHT22;32822;48.140;7.702;2024-03-02T04:59:09;4.40;91.30
47070;DHT22;32822;48.140;7.702;2024-03-02T05:01:37;4.40;91.30
47070;DHT22;32822;48.140;7.702;2024-03-02T05:04:04;4.50;91.20
47070;DHT22;32822;48.140;7.702;2024-03-02T05:06:31;4.50;91.40
47070;DHT22;32822;48.140;7.702;2024-03-02T05:08:57;4.40;91.40
47070;DHT22;32822;48.140;7.702;2024-03-02T05:11:24;4.40;91.60
47070;DHT22;32822;48.140;7.702;2024-03-02T05:14:08;4.40;91.50
47070;DHT22;32822;48.140;7.702;2024-03-02T05:16:36;4.40;91.30
47070;DHT22;32822;48.140;7.702;2024-03-02T05:19:05;4.40;91.10
47070;DHT22;32822;48.140;7.702;2024-03-02T05:21:32;4.30;91.00
47070;DHT22;32822;48.140;7.702;2024-03-02T05:23:59;4.30;91.10
47070;DHT22;32822;48.140;7.702;2024-03-02T05:26:26;4.30;91.10
47070;DHT22;32822;48.140;7.702;2024-03-02T05:28:53;4.30;91.40
47070;DHT22;32822;48.140;7.702;2024-03-02T05:31:19;4.30;91.70
47070;DHT22;32822;48.140;7.702;2024-03-02T05:33:46;4.30;92.00
47070;DHT22;32822;48.140;7.702;2024-03-02T05:36:14;4.40;91.70
47070;DHT22;32822;48.140;7.702;2024-03-02T05:38:41;4.40;92.10
47070;DHT22;32822;48.140;7.702;2024-03-02T05:41:08;4.40;92.20
47070;DHT22;32822;48.140;7.702;2024-03-02T05:43:34;4.40;92.00
47070;DHT22;32822;48.140;7.702;2024-03-02T05:46:01;4.40;92.10
47070;DHT22;32822;48.140;7.702;2024-03-02T05:48:28;4.40;92.00
47070;DHT22;32822;48.140;7.702;2024-03-02T05:50:55;4.40;92.00
47070;DHT22;32822;48.140;7.702;2024-03-02T05:53:23;4.50;92.10
47070;DHT22;32822;48.140;7.702;2024-03-02T05:55:50;4.50;92.10
47070;DHT22;32822;48.140;7.702;2024-03-02T05:58:19;4.50;92.30
47070;DHT22;32822;48.140;7.702;2024-03-02T06:00:56;4.50;92.40
47070;DHT22;32822;48.140;7.702;2024-03-02T06:03:23;4.50;92.20
47070;DHT22;32822;48.140;7.702;2024-03-02T06:05:50;4.50;92.40
47070;DHT22;32822;48.140;7.702;2024-03-02T06:08:17;4.50;92.40
47070;DHT22;32822;48.140;7.702;2024-03-02T06:10:45;4.50;92.30
47070;DHT22;32822;48.140;7.702;2024-03-02T06:13:12;4.50;92.30
47070;DHT22;32822;48.140;7.702;2024-03-02T06:15:39;4.60;92.60
47070;DHT22;32822;48.140;7.702;2024-03-02T06:18:05;4.60;92.40
47070;DHT22;32822;48.140;7.702;2024-03-02T06:20:33;4.60;92.70
47070;DHT22;32822;48.140;7.702;2024-03-02T06:23:00;4.60;92.80
47070;DHT22;32822;48.140;7.702;2024-03-02T06:25:27;4.60;92.60
47070;DHT22;32822;48.140;7.702;2024-03-02T06:27:55;4.60;93.10
47070;DHT22;32822;48.140;7.702;2024-03-02T06:30:21;4.60;93.00
47070;DHT22;32822;48.140;7.702;2024-03-02T06:32:48;4.60;93.20
47070;DHT22;32822;48.140;7.702;2024-03-02T06:35:15;4.60;92.90
47070;DHT22;32822;48.140;7.702;2024-03-02T06:37:41;4.60;92.80
47070;DHT22;32822;48.140;7.702;2024-03-02T06:40:09;4.60;93.10
47070;DHT22;32822;48.140;7.702;2024-03-02T06:42:36;4.60;93.20
47070;DHT22;32822;48.140;7.702;2024-03-02T06:45:05;4.60;93.20
47070;DHT22;32822;48.140;7.702;2024-03-02T06:47:31;4.70;92.90
47070;DHT22;32822;48.140;7.702;2024-03-02T06:49:58;4.70;93.00
47070;DHT22;32822;48.140;7.702;2024-03-02T06:52:25;4.70;93.30
47070;DHT22;32822;48.140;7.702;2024-03-02T06:54:51;4.70;93.10
47070;DHT22;32822;48.140;7.702;2024-03-02T06:57:18;4.70;93.00
47070;DHT22;32822;48.140;7.702;2024-03-02T06:59:46;4.70;92.90
47070;DHT22;32822;48.140;7.702;2024-03-02T07:02:15;4.70;93.10
47070;DHT22;32822;48.140;7.702;2024-03-02T07:04:42;4.70;93.00
47070;DHT22;32822;48.140;7.702;2024-03-02T07:07:08;4.80;92.80
47070;DHT22;32822;48.140;7.702;2024-03-02T07:09:35;4.80;92.80
47070;DHT22;32822;48.140;7.702;2024-03-02T07:12:02;4.80;93.30
47070;DHT22;32822;48.140;7.702;2024-03-02T07:14:29;4.80;93.30
47070;DHT22;32822;48.140;7.702;2024-03-02T07:17:09;4.80;93.50
47070;DHT22;32822;48.140;7.702;2024-03-02T07:19:38;4.90;93.60
47070;DHT22;32822;48.140;7.702;2024-03-02T07:22:06;4.90;93.10
47070;DHT22;32822;48.140;7.702;2024-03-02T07:24:39;4.90;92.90
47070;DHT22;32822;48.140;7.702;2024-03-02T07:27:06;4.90;92.90
47070;DHT22;32822;48.140;7.702;2024-03-02T07:29:33;4.90;93.10
47070;DHT22;32822;48.140;7.702;2024-03-02T07:31:59;5.00;93.40
47070;DHT22;32822;48.140;7.702;2024-03-02T07:34:26;5.00;93.50
47070;DHT22;32822;48.140;7.702;2024-03-02T07:36:54;5.10;93.30
47070;DHT22;32822;48.140;7.702;2024-03-02T07:39:21;5.00;93.10
47070;DHT22;32822;48.140;7.702;2024-03-02T07:41:48;5.00;93.20
47070;DHT22;32822;48.140;7.702;2024-03-02T07:44:15;5.10;93.30
47070;DHT22;32822;48.140;7.702;2024-03-02T07:46:44;5.10;93.40
47070;DHT22;32822;48.140;7.702;2024-03-02T07:49:12;5.10;93.80
47070;DHT22;32822;48.140;7.702;2024-03-02T07:51:39;5.10;93.60
47070;DHT22;32822;48.140;7.702;2024-03-02T07:54:07;5.10;93.60
47070;DHT22;32822;48.140;7.702;2024-03-02T07:56:34;5.10;94.30
47070;DHT22;32822;48.140;7.702;2024-03-02T07:59:01;5.20;93.80
47070;DHT22;32822;48.140;7.702;2024-03-02T08:01:28;5.20;93.80
47070;DHT22;32822;48.140;7.702;2024-03-02T08:03:55;5.20;94.30
47070;DHT22;32822;48.140;7.702;2024-03-02T08:06:24;5.20;94.70
47070;DHT22;32822;48.140;7.702;2024-03-02T08:08:53;5.20;94.60
47070;DHT22;32822;48.140;7.702;2024-03-02T08:11:21;5.30;94.90
47070;DHT22;32822;48.140;7.702;2024-03-02T08:13:48;5.30;95.20
47070;DHT22;32822;48.140;7.702;2024-03-02T08:16:15;5.30;94.90
47070;DHT22;32822;48.140;7.702;2024-03-02T08:18:44;5.30;95.10
47070;DHT22;32822;48.140;7.702;2024-03-02T08:21:10;5.30;94.80
47070;DHT22;32822;48.140;7.702;2024-03-02T08:23:37;5.30;94.90
47070;DHT22;32822;48.140;7.702;2024-03-02T08:26:06;5.40;95.40
47070;DHT22;32822;48.140;7.702;2024-03-02T08:28:34;5.40;95.50
47070;DHT22;32822;48.140;7.702;2024-03-02T08:31:02;5.50;96.00
47070;DHT22;32822;48.140;7.702;2024-03-02T08:33:29;5.50;95.90
47070;DHT22;32822;48.140;7.702;2024-03-02T08:35:56;5.50;95.70
47070;DHT22;32822;48.140;7.702;2024-03-02T08:38:23;5.50;95.80
47070;DHT22;32822;48.140;7.702;2024-03-02T08:40:50;5.60;95.90
47070;DHT22;32822;48.140;7.702;2024-03-02T08:43:17;5.60;96.20
47070;DHT22;32822;48.140;7.702;2024-03-02T08:45:45;5.70;96.30
47070;DHT22;32822;48.140;7.702;2024-03-02T08:48:12;5.70;96.60
47070;DHT22;32822;48.140;7.702;2024-03-02T08:50:39;5.80;96.60
47070;DHT22;32822;48.140;7.702;2024-03-02T08:53:06;5.90;96.50
47070;DHT22;32822;48.140;7.702;2024-03-02T08:55:32;5.90;96.60
47070;DHT22;32822;48.140;7.702;2024-03-02T08:57:59;6.00;96.60
47070;DHT22;32822;48.140;7.702;2024-03-02T09:00:26;6.00;96.40
47070;DHT22;32822;48.140;7.702;2024-03-02T09:02:54;6.10;96.20
47070;DHT22;32822;48.140;7.702;2024-03-02T09:05:21;6.10;96.30
47070;DHT22;32822;48.140;7.702;2024-03-02T09:07:47;6.20;96.10
47070;DHT22;32822;48.140;7.702;2024-03-02T09:10:14;6.20;95.90
47070;DHT22;32822;48.140;7.702;2024-03-02T09:12:41;6.30;96.40
47070;DHT22;32822;48.140;7.702;2024-03-02T09:15:09;6.40;96.40
47070;DHT22;32822;48.140;7.702;2024-03-02T09:17:36;6.50;96.40
47070;DHT22;32822;48.140;7.702;2024-03-02T09:20:05;6.60;96.20
47070;DHT22;32822;48.140;7.702;2024-03-02T09:22:32;6.60;96.10
47070;DHT22;32822;48.140;7.702;2024-03-02T09:24:58;6.70;96.10
47070;DHT22;32822;48.140;7.702;2024-03-02T09:27:25;6.80;96.00
47070;DHT22;32822;48.140;7.702;2024-03-02T09:29:52;6.90;96.10
47070;DHT22;32822;48.140;7.702;2024-03-02T09:32:19;6.90;96.10
47070;DHT22;32822;48.140;7.702;2024-03-02T09:34:45;7.00;96.10
47070;DHT22;32822;48.140;7.702;2024-03-02T09:37:15;7.10;95.90
47070;DHT22;32822;48.140;7.702;2024-03-02T09:39:43;7.20;96.30
47070;DHT22;32822;48.140;7.702;2024-03-02T09:42:11;7.20;95.90
47070;DHT22;32822;48.140;7.702;2024-03-02T09:44:37;7.30;95.70
47070;DHT22;32822;48.140;7.702;2024-03-02T09:47:06;7.30;95.40
47070;DHT22;32822;48.140;7.702;2024-03-02T09:49:33;7.40;95.40
47070;DHT22;32822;48.140;7.702;2024-03-02T09:51:59;7.50;95.40
47070;DHT22;32822;48.140;7.702;2024-03-02T09:54:28;7.60;95.20
47070;DHT22;32822;48.140;7.702;2024-03-02T09:56:54;7.70;95.10
47070;DHT22;32822;48.140;7.702;2024-03-02T09:59:21;7.80;95.30
47070;DHT22;32822;48.140;7.702;2024-03-02T10:01:56;7.90;95.80
47070;DHT22;32822;48.140;7.702;2024-03-02T10:04:24;8.00;95.70
47070;DHT22;32822;48.140;7.702;2024-03-02T10:06:51;8.10;95.40
47070;DHT22;32822;48.140;7.702;2024-03-02T10:09:28;8.20;95.20
47070;DHT22;32822;48.140;7.702;2024-03-02T10:12:04;8.30;94.80
47070;DHT22;32822;48.140;7.702;2024-03-02T10:14:31;8.50;94.30
47070;DHT22;32822;48.140;7.702;2024-03-02T10:17:02;8.60;94.20
47070;DHT22;32822;48.140;7.702;2024-03-02T10:19:29;8.70;93.60
47070;DHT22;32822;48.140;7.702;2024-03-02T10:21:58;8.80;93.00
47070;DHT22;32822;48.140;7.702;2024-03-02T10:24:25;8.90;93.10
47070;DHT22;32822;48.140;7.702;2024-03-02T10:26:53;9.00;93.20
47070;DHT22;32822;48.140;7.702;2024-03-02T10:29:22;9.10;93.10
47070;DHT22;32822;48.140;7.702;2024-03-02T10:31:49;9.10;93.10
47070;DHT22;32822;48.140;7.702;2024-03-02T10:34:15;9.20;93.20
47070;DHT22;32822;48.140;7.702;2024-03-02T10:36:43;9.30;92.70
47070;DHT22;32822;48.140;7.702;2024-03-02T10:39:13;9.30;92.70
47070;DHT22;32822;48.140;7.702;2024-03-02T10:41:40;9.40;92.60
47070;DHT22;32822;48.140;7.702;2024-03-02T10:44:09;9.50;92.10
47070;DHT22;32822;48.140;7.702;2024-03-02T10:46:37;9.60;92.10
47070;DHT22;32822;48.140;7.702;2024-03-02T10:49:05;9.70;90.50
47070;DHT22;32822;48.140;7.702;2024-03-02T10:51:33;9.80;90.30
47070;DHT22;32822;48.140;7.702;2024-03-02T10:54:02;9.90;90.20
47070;DHT22;32822;48.140;7.702;2024-03-02T10:56:30;10.00;87.30
47070;DHT22;32822;48.140;7.702;2024-03-02T10:59:02;10.10;85.40
47070;DHT22;32822;48.140;7.702;2024-03-02T11:01:32;10.20;81.50
47070;DHT22;32822;48.140;7.702;2024-03-02T11:03:59;10.40;82.60
47070;DHT22;32822;48.140;7.702;2024-03-02T11:06:28;10.50;80.00
47070;DHT22;32822;48.140;7.702;2024-03-02T11:09:00;10.60;78.70
47070;DHT22;32822;48.140;7.702;2024-03-02T11:11:36;10.70;76.50
47070;DHT22;32822;48.140;7.702;2024-03-02T11:14:04;10.80;76.20
47070;DHT22;32822;48.140;7.702;2024-03-02T11:16:36;10.80;76.70
47070;DHT22;32822;48.140;7.702;2024-03-02T11:19:05;10.90;75.20
47070;DHT22;32822;48.140;7.702;2024-03-02T11:21:33;10.90;74.80
47070;DHT22;32822;48.140;7.702;2024-03-02T11:24:00;11.00;74.90
47070;DHT22;32822;48.140;7.702;2024-03-02T11:26:28;11.00;73.40
47070;DHT22;32822;48.140;7.702;2024-03-02T11:28:55;11.10;74.30
47070;DHT22;32822;48.140;7.702;2024-03-02T11:31:58;11.10;73.00
47070;DHT22;32822;48.140;7.702;2024-03-02T11:34:29;11.20;72.20
47070;DHT22;32822;48.140;7.702;2024-03-02T11:36:56;11.20;72.60
47070;DHT22;32822;48.140;7.702;2024-03-02T11:39:24;11.30;71.80
47070;DHT22;32822;48.140;7.702;2024-03-02T11:41:51;11.40;72.30
47070;DHT22;32822;48.140;7.702;2024-03-02T11:44:18;11.50;71.20
47070;DHT22;32822;48.140;7.702;2024-03-02T11:46:46;11.60;71.70
47070;DHT22;32822;48.140;7.702;2024-03-02T11:49:15;11.60;70.40
47070;DHT22;32822;48.140;7.702;2024-03-02T11:52:00;11.70;70.40
47070;DHT22;32822;48.140;7.702;2024-03-02T11:54:27;11.80;70.20
47070;DHT22;32822;48.140;7.702;2024-03-02T11:56:56;11.90;68.90
47070;DHT22;32822;48.140;7.702;2024-03-02T11:59:24;12.00;69.10
47070;DHT22;32822;48.140;7.702;2024-03-02T12:01:53;12.10;67.40
47070;DHT22;32822;48.140;7.702;2024-03-02T12:04:23;12.20;67.40
47070;DHT22;32822;48.140;7.702;2024-03-02T12:06:54;12.30;67.80
47070;DHT22;32822;48.140;7.702;2024-03-02T12:09:21;12.30;68.20
47070;DHT22;32822;48.140;7.702;2024-03-02T12:11:48;12.30;67.10
47070;DHT22;32822;48.140;7.702;2024-03-02T12:14:14;12.30;67.80
47070;DHT22;32822;48.140;7.702;2024-03-02T12:16:43;12.40;67.60
47070;DHT22;32822;48.140;7.702;2024-03-02T12:19:10;12.40;67.70
47070;DHT22;32822;48.140;7.702;2024-03-02T12:21:38;12.40;68.20
47070;DHT22;32822;48.140;7.702;2024-03-02T12:24:05;12.50;66.80
47070;DHT22;32822;48.140;7.702;2024-03-02T12:26:32;12.60;66.70
47070;DHT22;32822;48.140;7.702;2024-03-02T12:28:59;12.60;64.70
47070;DHT22;32822;48.140;7.702;2024-03-02T12:31:25;12.70;63.90
47070;DHT22;32822;48.140;7.702;2024-03-02T12:33:52;12.80;62.70
47070;DHT22;32822;48.140;7.702;2024-03-02T12:36:19;12.90;63.60
47070;DHT22;32822;48.140;7.702;2024-03-02T12:38:47;12.90;63.40
47070;DHT22;32822;48.140;7.702;2024-03-02T12:41:15;13.00;62.20
47070;DHT22;32822;48.140;7.702;2024-03-02T12:43:41;13.00;62.80
47070;DHT22;32822;48.140;7.702;2024-03-02T12:46:08;13.10;62.40
47070;DHT22;32822;48.140;7.702;2024-03-02T12:48:35;13.20;62.30
47070;DHT22;32822;48.140;7.702;2024-03-02T12:51:02;13.20;61.90
47070;DHT22;32822;48.140;7.702;2024-03-02T12:53:29;13.30;62.10
47070;DHT22;32822;48.140;7.702;2024-03-02T12:55:57;13.30;62.10
47070;DHT22;32822;48.140;7.702;2024-03-02T12:58:24;13.50;62.10
47070;DHT22;32822;48.140;7.702;2024-03-02T13:01:05;13.50;61.40
47070;DHT22;32822;48.140;7.702;2024-03-02T13:03:35;13.60;60.30
47070;DHT22;32822;48.140;7.702;2024-03-02T13:06:02;13.60;60.10
47070;DHT22;32822;48.140;7.702;2024-03-02T13:08:29;13.60;61.00
47070;DHT22;32822;48.140;7.702;2024-03-02T13:10:57;13.70;59.80
47070;DHT22;32822;48.140;7.702;2024-03-02T13:13:24;13.70;60.80
47070;DHT22;32822;48.140;7.702;2024-03-02T13:15:54;13.70;61.00
47070;DHT22;32822;48.140;7.702;2024-03-02T13:18:21;13.80;60.20
47070;DHT22;32822;48.140;7.702;2024-03-02T13:20:48;13.90;60.20
47070;DHT22;32822;48.140;7.702;2024-03-02T13:23:15;13.90;59.90
47070;DHT22;32822;48.140;7.702;2024-03-02T13:25:42;13.90;59.60
47070;DHT22;32822;48.140;7.702;2024-03-02T13:28:10;14.00;58.60
47070;DHT22;32822;48.140;7.702;2024-03-02T13:30:37;13.90;58.50
47070;DHT22;32822;48.140;7.702;2024-03-02T13:33:04;14.00;58.60
47070;DHT22;32822;48.140;7.702;2024-03-02T13:35:30;14.00;58.80
47070;DHT22;32822;48.140;7.702;2024-03-02T13:37:57;14.30;58.70
47070;DHT22;32822;48.140;7.702;2024-03-02T13:40:24;14.00;59.30
47070;DHT22;32822;48.140;7.702;2024-03-02T13:42:51;14.10;57.90
47070;DHT22;32822;48.140;7.702;2024-03-02T13:45:20;14.10;58.80
47070;DHT22;32822;48.140;7.702;2024-03-02T13:47:47;14.00;59.40
47070;DHT22;32822;48.140;7.702;2024-03-02T13:50:13;14.10;58.70
47070;DHT22;32822;48.140;7.702;2024-03-02T13:52:39;14.00;58.50
47070;DHT22;32822;48.140;7.702;2024-03-02T13:55:07;14.00;60.20
47070;DHT22;32822;48.140;7.702;2024-03-02T13:57:34;14.00;60.50
47070;DHT22;32822;48.140;7.702;2024-03-02T14:00:00;13.90;59.70
47070;DHT22;32822;48.140;7.702;2024-03-02T14:02:29;13.90;59.90
47070;DHT22;32822;48.140;7.702;2024-03-02T14:04:56;13.90;60.70
47070;DHT22;32822;48.140;7.702;2024-03-02T14:07:23;13.90;57.70
47070;DHT22;32822;48.140;7.702;2024-03-02T14:09:49;13.90;58.70
47070;DHT22;32822;48.140;7.702;2024-03-02T14:12:16;13.90;58.70
47070;DHT22;32822;48.140;7.702;2024-03-02T14:14:43;14.00;58.70
47070;DHT22;32822;48.140;7.702;2024-03-02T14:17:10;13.90;58.60
47070;DHT22;32822;48.140;7.702;2024-03-02T14:19:41;13.90;57.70
47070;DHT22;32822;48.140;7.702;2024-03-02T14:22:08;14.00;58.40
47070;DHT22;32822;48.140;7.702;2024-03-02T14:24:34;13.90;58.30
47070;DHT22;32822;48.140;7.702;2024-03-02T14:27:01;13.90;58.10
47070;DHT22;32822;48.140;7.702;2024-03-02T14:29:29;13.80;57.80
47070;DHT22;32822;48.140;7.702;2024-03-02T14:31:56;13.80;57.80
47070;DHT22;32822;48.140;7.702;2024-03-02T14:34:23;13.80;58.80
47070;DHT22;32822;48.140;7.702;2024-03-02T14:36:51;13.80;59.80
47070;DHT22;32822;48.140;7.702;2024-03-02T14:39:18;13.80;58.70
47070;DHT22;32822;48.140;7.702;2024-03-02T14:41:45;13.80;59.10
47070;DHT22;32822;48.140;7.702;2024-03-02T14:44:12;13.80;61.00
47070;DHT22;32822;48.140;7.702;2024-03-02T14:46:38;13.70;60.50
47070;DHT22;32822;48.140;7.702;2024-03-02T14:49:05;13.70;59.80
47070;DHT22;32822;48.140;7.702;2024-03-02T14:51:33;13.70;59.70
47070;DHT22;32822;48.140;7.702;2024-03-02T14:54:01;13.70;59.50
47070;DHT22;32822;48.140;7.702;2024-03-02T14:56:28;13.70;59.70
47070;DHT22;32822;48.140;7.702;2024-03-02T14:58:55;13.70;59.00
47070;DHT22;32822;48.140;7.702;2024-03-02T15:01:21;13.60;59.40
47070;DHT22;32822;48.140;7.702;2024-03-02T15:03:50;13.70;60.60
47070;DHT22;32822;48.140;7.702;2024-03-02T15:06:16;13.60;59.20
47070;DHT22;32822;48.140;7.702;2024-03-02T15:08:43;13.60;60.20
47070;DHT22;32822;48.140;7.702;2024-03-02T15:11:13;13.60;59.30
47070;DHT22;32822;48.140;7.702;2024-03-02T15:13:40;13.60;61.10
47070;DHT22;32822;48.140;7.702;2024-03-02T15:16:07;13.50;61.90
47070;DHT22;32822;48.140;7.702;2024-03-02T15:18:33;13.50;63.60
47070;DHT22;32822;48.140;7.702;2024-03-02T15:21:01;13.50;63.60
47070;DHT22;32822;48.140;7.702;2024-03-02T15:23:27;13.50;58.50
47070;DHT22;32822;48.140;7.702;2024-03-02T15:25:55;13.50;59.00
47070;DHT22;32822;48.140;7.702;2024-03-02T15:28:23;13.50;59.70
47070;DHT22;32822;48.140;7.702;2024-03-02T15:30:50;13.50;60.40
47070;DHT22;32822;48.140;7.702;2024-03-02T15:33:17;13.50;60.70
47070;DHT22;32822;48.140;7.702;2024-03-02T15:35:44;13.50;62.00
47070;DHT22;32822;48.140;7.702;2024-03-02T15:38:10;13.50;63.60
47070;DHT22;32822;48.140;7.702;2024-03-02T15:40:40;13.50;64.60
47070;DHT22;32822;48.140;7.702;2024-03-02T15:43:07;13.50;64.50
47070;DHT22;32822;48.140;7.702;2024-03-02T15:45:35;13.60;64.80
47070;DHT22;32822;48.140;7.702;2024-03-02T15:48:02;13.60;65.00